createdAt,value
2022-08-09T00:00:12.062Z,2.10
2022-08-09T00:02:49.140Z,2.45
2022-08-09T00:06:15.774Z,2.45
2022-08-09T00:08:09.937Z,3.17
2022-08-09T00:10:39.179Z,2.42
2022-08-09T00:13:16.879Z,3.13
2022-08-09T00:15:59.749Z,2.15
2022-08-09T00:18:34.994Z,2.50
2022-08-09T00:21:05.204Z,2.60
2022-08-09T00:23:54.641Z,3.50
2022-08-09T00:26:32.190Z,2.73
2022-08-09T00:29:02.252Z,3.15
2022-08-09T00:31:57.606Z,2.97
2022-08-09T00:34:19.483Z,3.15
2022-08-09T00:36:50.165Z,2.90
2022-08-09T00:40:13.056Z,3.05
2022-08-09T00:44:11.608Z,2.70
2022-08-09T00:44:55.182Z,3.05
2022-08-09T00:47:24.668Z,2.75
2022-08-09T00:49:56.801Z,2.63
2022-08-09T00:52:30.381Z,2.70
2022-08-09T00:55:01.028Z,2.25
2022-08-09T00:57:34.581Z,2.70
2022-08-09T01:00:21.052Z,2.80
2022-08-09T01:02:57.796Z,2.72
2022-08-09T01:05:53.355Z,2.88
2022-08-09T01:08:29.232Z,2.33
2022-08-09T01:11:21.434Z,2.58
2022-08-09T01:14:00.000Z,2.75
2022-08-09T01:16:32.853Z,2.17
2022-08-09T01:19:08.413Z,2.28
2022-08-09T01:21:53.520Z,2.42
2022-08-09T01:24:36.164Z,2.50
2022-08-09T01:27:08.677Z,3.20
2022-08-09T01:29:55.264Z,2.47
2022-08-09T01:32:34.192Z,2.88
2022-08-09T01:35:37.367Z,2.60
2022-08-09T01:38:24.618Z,2.20
2022-08-09T01:41:05.014Z,2.47
2022-08-09T01:43:41.799Z,2.60
2022-08-09T01:46:26.831Z,2.85
2022-08-09T01:48:59.775Z,2.92
2022-08-09T01:51:32.309Z,2.65
2022-08-09T01:54:02.787Z,2.72
2022-08-09T01:56:33.241Z,3.20
2022-08-09T01:59:07.272Z,3.40
2022-08-09T02:01:59.013Z,2.97
2022-08-09T02:04:26.233Z,3.00
2022-08-09T02:09:42.402Z,2.80
2022-08-09T02:12:13.447Z,2.67
2022-08-09T02:14:51.810Z,2.80
2022-08-09T02:17:55.069Z,3.10
2022-08-09T02:20:12.216Z,2.67
2022-08-09T02:22:52.956Z,2.80
2022-08-09T02:25:29.776Z,2.38
2022-08-09T02:28:05.760Z,3.28
2022-08-09T02:30:46.434Z,2.45
2022-08-09T02:33:18.553Z,3.10
2022-08-09T02:36:03.369Z,2.58
2022-08-09T02:38:35.550Z,2.92
2022-08-09T02:41:08.161Z,2.85
2022-08-09T02:43:53.719Z,2.10
2022-08-09T02:46:27.455Z,3.08
2022-08-09T02:48:58.805Z,3.22
2022-08-09T02:51:36.934Z,2.97
2022-08-09T02:54:10.447Z,3.13
2022-08-09T02:56:42.668Z,3.55
2022-08-09T02:59:26.303Z,2.85
2022-08-09T03:02:07.142Z,3.45
2022-08-09T03:04:40.739Z,2.72
2022-08-09T03:07:12.475Z,3.40
2022-08-09T03:09:56.258Z,2.92
2022-08-09T03:12:25.953Z,3.38
2022-08-09T03:14:54.146Z,2.85
2022-08-09T03:17:26.767Z,2.90
2022-08-09T03:20:03.395Z,3.17
2022-08-09T03:22:44.485Z,3.03
2022-08-09T03:25:25.946Z,3.30
2022-08-09T03:28:05.492Z,2.72
2022-08-09T03:30:39.495Z,2.92
2022-08-09T03:33:17.413Z,2.63
2022-08-09T03:36:13.347Z,3.10
2022-08-09T03:38:41.670Z,4.18
2022-08-09T03:41:14.605Z,2.90
2022-08-09T03:44:02.861Z,3.45
2022-08-09T03:46:31.862Z,3.47
2022-08-09T03:49:03.885Z,2.67
2022-08-09T03:51:56.911Z,3.33
2022-08-09T03:54:29.549Z,3.50
2022-08-09T03:57:01.211Z,2.97
2022-08-09T03:59:43.263Z,3.15
2022-08-09T04:02:19.884Z,3.30
2022-08-09T04:04:56.338Z,2.55
2022-08-09T04:07:46.991Z,3.40
2022-08-09T04:10:15.525Z,2.90
2022-08-09T04:12:50.854Z,2.20
2022-08-09T04:15:39.258Z,3.08
2022-08-09T04:18:09.531Z,3.92
2022-08-09T04:20:43.996Z,2.90
2022-08-09T04:23:16.823Z,2.72
2022-08-09T04:25:51.651Z,3.40
2022-08-09T04:28:30.672Z,3.28
2022-08-09T04:31:05.827Z,2.83
2022-08-09T04:33:53.049Z,3.00
2022-08-09T04:36:28.689Z,2.63
2022-08-09T04:38:59.182Z,2.90
2022-08-09T04:41:32.251Z,3.08
2022-08-09T04:44:05.998Z,2.67
2022-08-09T04:46:38.047Z,2.97
2022-08-09T04:49:47.712Z,2.53
2022-08-09T04:52:18.610Z,2.20
2022-08-09T04:54:54.624Z,3.13
2022-08-09T04:57:24.536Z,2.83
2022-08-09T04:59:54.564Z,2.80
2022-08-09T05:02:23.877Z,2.72
2022-08-09T05:04:55.081Z,3.22
2022-08-09T05:07:23.956Z,2.95
2022-08-09T05:09:51.448Z,2.87
2022-08-09T05:12:18.990Z,3.00
2022-08-09T05:14:49.802Z,2.85
2022-08-09T05:18:39.732Z,2.30
2022-08-09T05:20:05.430Z,2.28
2022-08-09T05:23:51.182Z,2.60
2022-08-09T05:25:21.622Z,2.80
2022-08-09T05:27:50.521Z,2.67
2022-08-09T05:30:19.552Z,2.90
2022-08-09T05:32:50.971Z,2.60
2022-08-09T05:35:21.970Z,2.83
2022-08-09T05:37:50.445Z,2.70
2022-08-09T05:40:18.659Z,2.28
2022-08-09T05:42:46.901Z,2.50
2022-08-09T05:45:14.255Z,2.72
2022-08-09T05:47:52.951Z,3.15
2022-08-09T05:50:36.089Z,2.70
2022-08-09T05:53:21.423Z,2.25
2022-08-09T05:55:58.759Z,2.33
2022-08-09T05:58:25.913Z,2.63
2022-08-09T06:00:53.911Z,2.67
2022-08-09T06:03:21.119Z,2.83
2022-08-09T06:05:57.423Z,2.42
2022-08-09T06:08:33.542Z,2.83
2022-08-09T06:11:01.162Z,2.47
2022-08-09T06:13:34.095Z,2.42
2022-08-09T06:16:04.989Z,2.58
2022-08-09T06:18:32.916Z,2.42
2022-08-09T06:21:01.808Z,2.70
2022-08-09T06:23:57.627Z,3.28
2022-08-09T06:26:22.409Z,2.88
2022-08-09T06:29:00.087Z,2.53
2022-08-09T06:31:39.629Z,2.53
2022-08-09T06:34:22.855Z,2.43
2022-08-09T06:36:57.279Z,2.28
2022-08-09T06:39:48.294Z,3.05
2022-08-09T06:42:30.291Z,2.30
2022-08-09T06:47:25.663Z,2.72
2022-08-09T06:50:13.299Z,3.47
2022-08-09T06:52:46.981Z,2.53
2022-08-09T06:55:26.364Z,2.60
2022-08-09T06:58:01.384Z,2.58
2022-08-09T07:00:54.523Z,2.60
2022-08-09T07:03:26.923Z,2.10
2022-08-09T07:06:03.431Z,2.55
2022-08-09T07:08:32.391Z,3.00
2022-08-09T07:10:59.559Z,3.03
2022-08-09T07:13:28.180Z,2.13
2022-08-09T07:16:42.209Z,2.67
2022-08-09T07:18:47.352Z,2.35
2022-08-09T07:21:14.578Z,2.65
2022-08-09T07:23:56.594Z,2.75
2022-08-09T07:26:25.937Z,2.17
2022-08-09T07:29:01.362Z,2.65
2022-08-09T07:31:38.654Z,2.75
2022-08-09T07:34:20.626Z,1.98
2022-08-09T07:36:52.847Z,2.55
2022-08-09T07:39:40.184Z,2.17
2022-08-09T07:42:08.499Z,2.10
2022-08-09T07:44:52.062Z,3.13
2022-08-09T07:47:21.196Z,1.88
2022-08-09T07:50:04.813Z,3.05
2022-08-09T07:52:36.544Z,2.25
2022-08-09T07:55:09.596Z,2.88
2022-08-09T07:57:47.230Z,2.30
2022-08-09T08:00:20.296Z,1.88
2022-08-09T08:03:01.594Z,2.13
2022-08-09T08:05:53.685Z,2.60
2022-08-09T08:09:02.218Z,2.22
2022-08-09T08:12:10.306Z,2.42
2022-08-09T08:13:57.185Z,2.78
2022-08-09T08:16:29.740Z,2.40
2022-08-09T08:18:59.788Z,2.38
2022-08-09T08:21:30.326Z,1.67
2022-08-09T08:23:57.491Z,2.03
2022-08-09T08:26:54.856Z,1.85
2022-08-09T08:29:20.328Z,2.55
2022-08-09T08:32:03.666Z,2.65
2022-08-09T08:34:34.716Z,2.50
2022-08-09T08:37:03.938Z,1.90
2022-08-09T08:39:39.241Z,2.03
2022-08-09T08:42:11.796Z,2.00
2022-08-09T08:44:41.408Z,1.90
2022-08-09T08:47:12.796Z,1.90
2022-08-09T08:49:46.944Z,2.38
2022-08-09T08:52:57.683Z,2.65
2022-08-09T08:55:10.324Z,1.95
2022-08-09T08:57:38.012Z,2.25
2022-08-09T09:00:20.445Z,1.75
2022-08-09T09:03:08.366Z,2.00
2022-08-09T09:08:42.042Z,1.88
2022-08-09T09:11:17.181Z,2.25
2022-08-09T09:13:56.851Z,2.00
2022-08-09T09:16:29.818Z,2.05
2022-08-09T09:21:56.628Z,1.73
2022-08-09T09:24:30.258Z,1.92
2022-08-09T09:27:01.105Z,2.67
2022-08-09T09:29:57.990Z,2.50
2022-08-09T09:32:35.071Z,2.05
2022-08-09T09:35:07.794Z,2.10
2022-08-09T09:37:40.490Z,1.98
2022-08-09T09:40:10.053Z,2.08
2022-08-09T09:42:39.079Z,1.95
2022-08-09T09:45:10.288Z,1.63
2022-08-09T09:47:56.236Z,1.58
2022-08-09T09:50:50.933Z,1.40
2022-08-09T09:53:21.242Z,1.50
2022-08-09T09:55:57.573Z,1.48
2022-08-09T09:58:47.065Z,1.17
2022-08-09T10:01:31.544Z,1.60
2022-08-09T10:04:15.982Z,1.63
2022-08-09T10:06:46.940Z,1.40
2022-08-09T10:09:22.204Z,1.50
2022-08-09T10:12:14.571Z,1.30
2022-08-09T10:14:48.391Z,1.38
2022-08-09T10:17:39.701Z,1.52
2022-08-09T10:20:15.113Z,1.10
2022-08-09T10:22:42.687Z,1.45
2022-08-09T10:25:11.762Z,1.15
2022-08-09T10:27:56.832Z,1.70
2022-08-09T10:36:02.999Z,1.10
2022-08-09T10:38:54.336Z,1.25
2022-08-09T10:41:20.582Z,1.40
2022-08-09T10:43:59.456Z,1.50
2022-08-09T10:47:00.648Z,1.70
2022-08-09T10:49:51.281Z,1.23
2022-08-09T10:52:26.458Z,1.63
2022-08-09T10:54:53.908Z,1.38
2022-08-09T10:57:23.257Z,1.83
2022-08-09T10:59:57.289Z,1.40
2022-08-09T11:03:47.120Z,1.27
2022-08-09T11:05:30.019Z,1.33
2022-08-09T11:08:43.566Z,1.33
2022-08-09T11:11:16.438Z,1.00
2022-08-09T11:13:51.427Z,1.60
2022-08-09T11:16:40.958Z,1.37
2022-08-09T11:19:10.601Z,1.63
2022-08-09T11:22:05.154Z,1.63
2022-08-09T11:25:15.680Z,1.75
2022-08-09T11:30:34.651Z,1.50
2022-08-09T11:33:09.286Z,1.33
2022-08-09T11:35:49.578Z,2.00
2022-08-09T11:38:32.003Z,1.20
2022-08-09T11:41:13.428Z,1.80
2022-08-09T11:43:42.900Z,1.38
2022-08-09T11:46:10.684Z,1.38
2022-08-09T11:48:53.801Z,1.20
2022-08-09T11:52:56.796Z,1.75
2022-08-09T11:54:13.410Z,1.38
2022-08-09T11:56:42.209Z,1.38
2022-08-09T11:59:30.379Z,1.13
2022-08-09T12:02:34.412Z,1.83
2022-08-09T12:04:58.750Z,2.13
2022-08-09T12:07:41.345Z,1.20
2022-08-09T12:10:32.002Z,1.10
2022-08-09T12:13:03.691Z,0.95
2022-08-09T12:15:49.568Z,1.05
2022-08-09T12:18:29.563Z,1.80
2022-08-09T12:21:00.629Z,1.10
2022-08-09T12:23:56.500Z,1.30
2022-08-09T12:26:25.867Z,1.50
2022-08-09T12:29:10.357Z,1.35
2022-08-09T12:31:58.203Z,1.45
2022-08-09T12:34:39.937Z,1.30
2022-08-09T12:37:21.689Z,1.20
2022-08-09T12:40:11.626Z,1.35
2022-08-09T12:42:44.307Z,1.27
2022-08-09T12:45:34.057Z,1.50
2022-08-09T12:47:59.843Z,1.25
2022-08-09T12:50:28.604Z,1.15
2022-08-09T12:53:08.586Z,1.10
2022-08-09T12:56:12.544Z,1.30
2022-08-09T12:58:27.852Z,1.13
2022-08-09T13:00:56.607Z,1.38
2022-08-09T13:03:54.116Z,1.58
2022-08-09T13:06:35.634Z,1.50
2022-08-09T13:09:14.285Z,1.30
2022-08-09T13:11:47.180Z,1.33
2022-08-09T13:14:42.959Z,1.15
2022-08-09T13:17:13.570Z,1.17
2022-08-09T13:20:08.644Z,1.48
2022-08-09T13:22:45.735Z,1.30
2022-08-09T13:25:20.635Z,1.23
2022-08-09T13:27:55.085Z,1.42
2022-08-09T13:30:50.335Z,1.50
2022-08-09T13:33:22.359Z,1.42
2022-08-09T13:36:37.348Z,1.40
2022-08-09T13:38:57.434Z,1.20
2022-08-09T13:41:54.005Z,1.20
2022-08-09T13:44:13.630Z,1.27
2022-08-09T13:47:27.537Z,1.50
2022-08-09T13:49:37.861Z,1.52
2022-08-09T13:52:09.067Z,1.40
2022-08-09T13:54:42.911Z,1.50
2022-08-09T13:57:37.112Z,1.23
2022-08-09T14:00:17.875Z,1.52
2022-08-09T14:03:03.016Z,1.25
2022-08-09T14:05:59.406Z,1.40
2022-08-09T14:08:20.804Z,1.33
2022-08-09T14:10:52.628Z,1.33
2022-08-09T14:13:27.997Z,1.10
2022-08-09T14:16:14.202Z,1.50
2022-08-09T14:18:45.774Z,1.30
2022-08-09T14:21:23.103Z,1.17
2022-08-09T14:23:54.787Z,1.63
2022-08-09T14:26:30.553Z,1.83
2022-08-09T14:29:03.127Z,1.45
2022-08-09T14:31:35.800Z,1.60
2022-08-09T14:34:17.664Z,1.30
2022-08-09T14:36:55.426Z,1.58
2022-08-09T14:39:45.445Z,1.65
2022-08-09T14:42:09.743Z,1.30
2022-08-09T14:44:48.420Z,1.88
2022-08-09T14:47:39.757Z,1.88
2022-08-09T14:50:05.317Z,2.17
2022-08-09T14:55:01.242Z,2.25
2022-08-09T14:57:31.809Z,3.00
2022-08-09T14:59:59.385Z,1.92
2022-08-09T15:02:28.182Z,2.13
2022-08-09T15:04:57.150Z,2.10
2022-08-09T15:07:25.776Z,2.00
2022-08-09T15:10:07.615Z,1.58
2022-08-09T15:12:38.672Z,1.77
2022-08-09T15:15:12.019Z,1.60
2022-08-09T15:17:42.149Z,1.80
2022-08-09T15:20:15.375Z,2.00
2022-08-09T15:24:01.170Z,2.17
2022-08-09T15:25:52.966Z,2.28
2022-08-09T15:28:27.981Z,1.88
2022-08-09T15:31:07.349Z,2.05
2022-08-09T15:34:17.709Z,1.83
2022-08-09T15:36:28.664Z,2.43
2022-08-09T15:38:58.745Z,1.80
2022-08-09T15:41:31.316Z,2.28
2022-08-09T15:44:03.632Z,1.88
2022-08-09T15:46:33.098Z,1.80
2022-08-09T15:49:21.658Z,2.42
2022-08-09T15:52:05.062Z,2.40
2022-08-09T15:54:46.230Z,2.88
2022-08-09T15:57:18.947Z,2.42
2022-08-09T16:00:05.518Z,2.40
2022-08-09T16:02:32.769Z,2.03
2022-08-09T16:05:03.910Z,2.58
2022-08-09T16:07:38.791Z,1.83
2022-08-09T16:10:11.263Z,2.25
2022-08-09T16:12:50.596Z,2.28
2022-08-09T16:16:12.355Z,2.45
2022-08-09T16:18:08.941Z,2.38
2022-08-09T16:20:37.948Z,2.88
2022-08-09T16:23:08.644Z,1.88
2022-08-09T16:25:40.392Z,2.58
2022-08-09T16:28:08.343Z,2.25
2022-08-09T16:30:40.927Z,2.35
2022-08-09T16:33:15.783Z,2.40
2022-08-09T16:35:56.692Z,2.50
2022-08-09T16:38:27.008Z,3.00
2022-08-09T16:40:54.257Z,1.98
2022-08-09T16:43:22.887Z,2.40
2022-08-09T16:45:53.788Z,2.45
2022-08-09T16:48:50.621Z,2.83
2022-08-09T16:51:14.235Z,1.88
2022-08-09T16:54:08.906Z,2.30
2022-08-09T16:56:31.608Z,2.38
2022-08-09T16:59:01.125Z,1.90
2022-08-09T17:01:33.601Z,2.95
2022-08-09T17:04:01.795Z,2.45
2022-08-09T17:06:31.861Z,1.77
2022-08-09T17:09:43.591Z,2.17
2022-08-09T17:11:48.170Z,2.00
2022-08-09T17:14:27.346Z,1.88
2022-08-09T17:16:59.847Z,1.65
2022-08-09T17:20:12.645Z,1.60
2022-08-09T17:22:29.057Z,1.70
2022-08-09T17:25:10.200Z,1.92
2022-08-09T17:27:48.700Z,2.30
2022-08-09T17:30:17.098Z,1.67
2022-08-09T17:32:47.104Z,1.80
2022-08-09T17:35:14.752Z,1.90
2022-08-09T17:38:11.770Z,1.90
2022-08-09T17:40:32.695Z,1.90
2022-08-09T17:43:10.782Z,1.75
2022-08-09T17:46:02.891Z,1.45
2022-08-09T17:48:33.841Z,1.90
2022-08-09T17:51:08.944Z,1.50
2022-08-09T17:53:48.178Z,1.50
2022-08-09T17:56:27.953Z,1.48
2022-08-09T17:59:03.275Z,1.63
2022-08-09T18:01:58.093Z,1.88
2022-08-09T18:04:20.012Z,1.98
2022-08-09T18:06:54.066Z,2.33
2022-08-09T18:09:25.137Z,1.50
2022-08-09T18:12:14.655Z,1.50
2022-08-09T18:14:53.362Z,1.60
2022-08-09T18:17:27.644Z,1.50
2022-08-09T18:20:56.439Z,1.63
2022-08-09T18:22:56.354Z,1.20
2022-08-09T18:25:53.377Z,1.17
2022-08-09T18:28:21.735Z,1.35
2022-08-09T18:30:58.661Z,1.23
2022-08-09T18:33:26.150Z,1.40
2022-08-09T18:35:59.426Z,1.77
2022-08-09T18:38:27.701Z,1.40
2022-08-09T18:40:55.468Z,1.20
2022-08-09T18:43:23.499Z,1.30
2022-08-09T18:46:49.452Z,1.42
2022-08-09T18:48:38.345Z,1.40
2022-08-09T18:51:09.828Z,1.38
2022-08-09T18:54:00.548Z,1.60
2022-08-09T18:56:28.240Z,1.20
2022-08-09T18:58:56.967Z,1.55
2022-08-09T19:01:25.651Z,1.02
2022-08-09T19:06:38.677Z,1.10
2022-08-09T19:09:07.470Z,1.55
2022-08-09T19:11:38.268Z,1.40
2022-08-09T19:14:07.057Z,1.30
2022-08-09T19:16:35.941Z,1.35
2022-08-09T19:19:26.162Z,1.33
2022-08-09T19:22:06.557Z,1.38
2022-08-09T19:25:07.406Z,1.20
2022-08-09T19:27:23.534Z,1.35
2022-08-09T19:30:25.305Z,1.10
2022-08-09T19:32:44.353Z,1.20
2022-08-09T19:35:11.579Z,1.33
2022-08-09T19:37:54.113Z,1.30
2022-08-09T19:40:24.373Z,1.35
2022-08-09T19:43:05.430Z,1.20
2022-08-09T19:45:43.662Z,1.27
2022-08-09T19:48:11.887Z,1.30
2022-08-09T19:50:48.831Z,1.30
2022-08-09T19:53:20.498Z,1.20
2022-08-09T19:56:02.224Z,1.15
2022-08-09T19:58:33.777Z,1.00
2022-08-09T20:01:01.525Z,1.30
2022-08-09T20:04:17.954Z,1.73
2022-08-09T20:06:22.937Z,1.20
2022-08-09T20:08:55.387Z,1.20
2022-08-09T20:11:42.983Z,2.33
2022-08-09T20:14:16.401Z,1.27
2022-08-09T20:16:53.800Z,1.40
2022-08-09T20:19:48.901Z,1.38
2022-08-09T20:22:14.434Z,1.13
2022-08-09T20:24:42.762Z,1.25
2022-08-09T20:27:21.875Z,1.20
2022-08-09T20:29:49.375Z,1.30
2022-08-09T20:32:30.373Z,1.40
2022-08-09T20:35:06.045Z,1.60
2022-08-09T20:38:18.992Z,1.42
2022-08-09T20:40:26.535Z,1.73
2022-08-09T20:43:11.853Z,1.45
2022-08-09T20:46:00.357Z,1.48
2022-08-09T20:48:31.577Z,1.13
2022-08-09T20:51:03.188Z,1.30
2022-08-09T20:53:37.804Z,1.15
2022-08-09T20:56:20.544Z,1.20
2022-08-09T20:58:50.462Z,1.42
2022-08-09T21:01:35.121Z,1.10
2022-08-09T21:05:54.029Z,1.08
2022-08-09T21:06:56.606Z,1.40
2022-08-09T21:09:32.860Z,1.95
2022-08-09T21:14:46.103Z,1.40
2022-08-09T21:18:11.922Z,1.80
2022-08-09T21:20:22.842Z,1.42
2022-08-09T21:22:54.440Z,2.25
2022-08-09T21:25:44.441Z,1.90
2022-08-09T21:28:28.084Z,1.45
2022-08-09T21:31:16.994Z,1.70
2022-08-09T21:33:51.434Z,1.67
2022-08-09T21:36:25.903Z,1.88
2022-08-09T21:38:57.259Z,1.52
2022-08-09T21:42:04.302Z,1.58
2022-08-09T21:44:33.527Z,1.85
2022-08-09T21:47:04.619Z,1.40
2022-08-09T21:49:39.499Z,1.95
2022-08-09T21:52:16.669Z,1.58
2022-08-09T21:54:59.730Z,1.70
2022-08-09T21:57:38.357Z,1.55
2022-08-09T22:02:58.197Z,1.58
2022-08-09T22:05:37.529Z,1.70
2022-08-09T22:08:13.697Z,1.38
2022-08-09T22:11:50.228Z,1.70
2022-08-09T22:13:35.439Z,1.98
2022-08-09T22:16:08.311Z,1.63
2022-08-09T22:18:44.020Z,2.05
2022-08-09T22:21:25.003Z,1.63
2022-08-09T22:24:16.933Z,1.60
2022-08-09T22:26:51.012Z,1.60
2022-08-09T22:29:24.042Z,1.77
2022-08-09T22:31:57.855Z,1.60
2022-08-09T22:34:26.258Z,1.30
2022-08-09T22:36:58.208Z,1.40
2022-08-09T22:39:58.048Z,1.80
2022-08-09T22:42:22.350Z,1.48
2022-08-09T22:45:00.385Z,1.80
2022-08-09T22:48:10.230Z,1.77
2022-08-09T22:50:29.561Z,1.73
2022-08-09T22:52:58.227Z,1.63
2022-08-09T22:58:20.269Z,1.60
2022-08-09T23:01:05.483Z,1.30
2022-08-09T23:04:05.244Z,1.70
2022-08-09T23:06:30.133Z,1.52
2022-08-09T23:09:02.578Z,1.63
2022-08-09T23:11:29.686Z,1.77
2022-08-09T23:13:56.825Z,2.17
2022-08-09T23:16:23.930Z,1.90
2022-08-09T23:18:51.082Z,2.60
2022-08-09T23:21:26.777Z,1.92
2022-08-09T23:24:05.646Z,1.52
2022-08-09T23:26:38.072Z,1.65
2022-08-09T23:29:07.233Z,1.30
2022-08-09T23:34:03.713Z,1.90
2022-08-09T23:36:31.957Z,2.13
2022-08-09T23:38:59.169Z,1.80
2022-08-09T23:41:28.988Z,1.80
2022-08-09T23:44:00.955Z,2.65
2022-08-09T23:46:29.546Z,1.70
2022-08-09T23:48:57.858Z,1.63
2022-08-09T23:51:26.024Z,1.73
2022-08-09T23:53:55.383Z,1.55
2022-08-09T23:56:52.665Z,2.42
2022-08-09T23:59:17.740Z,2.00
